sensor_id;sensor_type;location;lat;lon;timestamp;P1;durP1;ratioP1;P2;durP2;ratioP2
21326;SDS011;10822;51.532;6.770;2023-02-21T00:00:26;32.38;;;19.50;;
21326;SDS011;10822;51.532;6.770;2023-02-21T00:03:11;30.85;;;19.00;;
21326;SDS011;10822;51.532;6.770;2023-02-21T00:05:55;35.58;;;20.48;;
21326;SDS011;10822;51.532;6.770;2023-02-21T00:08:40;30.45;;;18.42;;
21326;SDS011;10822;51.532;6.770;2023-02-21T00:11:25;29.70;;;18.17;;
21326;SDS011;10822;51.532;6.770;2023-02-21T00:14:09;29.27;;;19.08;;
21326;SDS011;10822;51.532;6.770;2023-02-21T00:16:54;33.05;;;19.75;;
21326;SDS011;10822;51.532;6.770;2023-02-21T00:19:39;33.75;;;20.33;;
21326;SDS011;10822;51.532;6.770;2023-02-21T00:22:24;36.65;;;20.60;;
21326;SDS011;10822;51.532;6.770;2023-02-21T00:25:08;35.55;;;20.58;;
21326;SDS011;10822;51.532;6.770;2023-02-21T00:27:53;36.17;;;20.67;;
21326;SDS011;10822;51.532;6.770;2023-02-21T00:30:37;34.30;;;21.33;;
21326;SDS011;10822;51.532;6.770;2023-02-21T00:33:22;32.97;;;20.08;;
21326;SDS011;10822;51.532;6.770;2023-02-21T00:36:06;36.13;;;20.92;;
21326;SDS011;10822;51.532;6.770;2023-02-21T00:38:51;31.20;;;19.83;;
21326;SDS011;10822;51.532;6.770;2023-02-21T00:41:36;34.35;;;19.77;;
21326;SDS011;10822;51.532;6.770;2023-02-21T00:44:20;32.53;;;19.75;;
21326;SDS011;10822;51.532;6.770;2023-02-21T00:47:05;33.97;;;20.17;;
21326;SDS011;10822;51.532;6.770;2023-02-21T00:49:49;34.10;;;20.17;;
21326;SDS011;10822;51.532;6.770;2023-02-21T00:52:34;32.47;;;20.20;;
21326;SDS011;10822;51.532;6.770;2023-02-21T00:55:18;34.28;;;20.00;;
21326;SDS011;10822;51.532;6.770;2023-02-21T00:58:03;32.17;;;19.88;;
21326;SDS011;10822;51.532;6.770;2023-02-21T01:00:47;35.15;;;21.20;;
21326;SDS011;10822;51.532;6.770;2023-02-21T01:03:32;33.78;;;20.98;;
21326;SDS011;10822;51.532;6.770;2023-02-21T01:06:16;32.97;;;20.63;;
21326;SDS011;10822;51.532;6.770;2023-02-21T01:09:01;34.10;;;20.50;;
21326;SDS011;10822;51.532;6.770;2023-02-21T01:11:45;34.65;;;20.83;;
21326;SDS011;10822;51.532;6.770;2023-02-21T01:14:30;39.03;;;21.58;;
21326;SDS011;10822;51.532;6.770;2023-02-21T01:17:14;34.67;;;21.08;;
21326;SDS011;10822;51.532;6.770;2023-02-21T01:19:59;33.90;;;21.25;;
21326;SDS011;10822;51.532;6.770;2023-02-21T01:22:45;32.42;;;20.75;;
21326;SDS011;10822;51.532;6.770;2023-02-21T01:25:29;38.10;;;21.73;;
21326;SDS011;10822;51.532;6.770;2023-02-21T01:28:14;37.53;;;21.15;;
21326;SDS011;10822;51.532;6.770;2023-02-21T01:30:59;35.75;;;20.83;;
21326;SDS011;10822;51.532;6.770;2023-02-21T01:33:43;37.33;;;21.80;;
21326;SDS011;10822;51.532;6.770;2023-02-21T01:36:28;34.17;;;21.48;;
21326;SDS011;10822;51.532;6.770;2023-02-21T01:39:12;38.42;;;21.45;;
21326;SDS011;10822;51.532;6.770;2023-02-21T01:41:57;37.22;;;21.50;;
21326;SDS011;10822;51.532;6.770;2023-02-21T01:44:42;40.05;;;23.05;;
21326;SDS011;10822;51.532;6.770;2023-02-21T01:47:28;35.83;;;23.02;;
21326;SDS011;10822;51.532;6.770;2023-02-21T01:50:24;36.17;;;21.30;;
21326;SDS011;10822;51.532;6.770;2023-02-21T01:53:14;37.53;;;21.38;;
21326;SDS011;10822;51.532;6.770;2023-02-21T01:56:00;35.35;;;20.45;;
21326;SDS011;10822;51.532;6.770;2023-02-21T01:58:46;39.83;;;22.85;;
21326;SDS011;10822;51.532;6.770;2023-02-21T02:01:40;36.58;;;21.00;;
21326;SDS011;10822;51.532;6.770;2023-02-21T02:04:28;35.08;;;20.73;;
21326;SDS011;10822;51.532;6.770;2023-02-21T02:07:13;42.65;;;23.10;;
21326;SDS011;10822;51.532;6.770;2023-02-21T02:09:57;37.08;;;21.85;;
21326;SDS011;10822;51.532;6.770;2023-02-21T02:12:46;36.28;;;21.58;;
21326;SDS011;10822;51.532;6.770;2023-02-21T02:20:51;36.97;;;22.17;;
21326;SDS011;10822;51.532;6.770;2023-02-21T02:25:59;40.65;;;22.40;;
21326;SDS011;10822;51.532;6.770;2023-02-21T02:28:55;40.60;;;22.45;;
21326;SDS011;10822;51.532;6.770;2023-02-21T02:41:46;40.30;;;22.80;;
21326;SDS011;10822;51.532;6.770;2023-02-21T02:44:17;40.22;;;22.52;;
21326;SDS011;10822;51.532;6.770;2023-02-21T02:46:45;39.20;;;21.85;;
21326;SDS011;10822;51.532;6.770;2023-02-21T02:49:19;43.38;;;23.08;;
21326;SDS011;10822;51.532;6.770;2023-02-21T02:51:45;41.47;;;23.55;;
21326;SDS011;10822;51.532;6.770;2023-02-21T02:54:11;42.75;;;24.15;;
21326;SDS011;10822;51.532;6.770;2023-02-21T02:56:38;42.30;;;22.23;;
21326;SDS011;10822;51.532;6.770;2023-02-21T02:59:11;39.15;;;22.55;;
21326;SDS011;10822;51.532;6.770;2023-02-21T03:12:04;39.55;;;21.85;;
21326;SDS011;10822;51.532;6.770;2023-02-21T03:14:35;38.10;;;23.58;;
21326;SDS011;10822;51.532;6.770;2023-02-21T03:17:03;44.28;;;22.17;;
21326;SDS011;10822;51.532;6.770;2023-02-21T03:19:34;38.22;;;22.48;;
21326;SDS011;10822;51.532;6.770;2023-02-21T03:22:04;40.17;;;22.50;;
21326;SDS011;10822;51.532;6.770;2023-02-21T03:24:32;41.63;;;23.42;;
21326;SDS011;10822;51.532;6.770;2023-02-21T03:26:59;38.53;;;22.48;;
21326;SDS011;10822;51.532;6.770;2023-02-21T03:29:26;37.83;;;22.25;;
21326;SDS011;10822;51.532;6.770;2023-02-21T03:32:00;41.80;;;24.42;;
21326;SDS011;10822;51.532;6.770;2023-02-21T03:34:37;38.90;;;22.65;;
21326;SDS011;10822;51.532;6.770;2023-02-21T03:37:04;41.60;;;22.60;;
21326;SDS011;10822;51.532;6.770;2023-02-21T03:39:30;39.90;;;23.38;;
21326;SDS011;10822;51.532;6.770;2023-02-21T03:41:56;40.17;;;23.25;;
21326;SDS011;10822;51.532;6.770;2023-02-21T03:44:22;40.97;;;23.30;;
21326;SDS011;10822;51.532;6.770;2023-02-21T03:46:48;38.55;;;23.20;;
21326;SDS011;10822;51.532;6.770;2023-02-21T03:49:14;41.35;;;23.67;;
21326;SDS011;10822;51.532;6.770;2023-02-21T03:51:40;41.55;;;23.48;;
21326;SDS011;10822;51.532;6.770;2023-02-21T03:54:06;44.95;;;25.13;;
21326;SDS011;10822;51.532;6.770;2023-02-21T03:56:32;42.90;;;23.40;;
21326;SDS011;10822;51.532;6.770;2023-02-21T03:58:58;42.38;;;24.00;;
21326;SDS011;10822;51.532;6.770;2023-02-21T04:01:24;45.50;;;24.65;;
21326;SDS011;10822;51.532;6.770;2023-02-21T04:03:50;44.67;;;23.85;;
21326;SDS011;10822;51.532;6.770;2023-02-21T04:06:16;48.53;;;24.95;;
21326;SDS011;10822;51.532;6.770;2023-02-21T04:08:42;47.88;;;23.75;;
21326;SDS011;10822;51.532;6.770;2023-02-21T04:11:08;43.10;;;24.42;;
21326;SDS011;10822;51.532;6.770;2023-02-21T04:13:34;42.92;;;23.50;;
21326;SDS011;10822;51.532;6.770;2023-02-21T04:16:00;42.00;;;23.25;;
21326;SDS011;10822;51.532;6.770;2023-02-21T04:18:26;44.83;;;24.52;;
21326;SDS011;10822;51.532;6.770;2023-02-21T04:20:52;45.45;;;24.23;;
21326;SDS011;10822;51.532;6.770;2023-02-21T04:23:18;43.80;;;23.98;;
21326;SDS011;10822;51.532;6.770;2023-02-21T04:25:44;46.35;;;24.33;;
21326;SDS011;10822;51.532;6.770;2023-02-21T04:28:10;45.53;;;25.13;;
21326;SDS011;10822;51.532;6.770;2023-02-21T04:30:36;43.90;;;24.67;;
21326;SDS011;10822;51.532;6.770;2023-02-21T04:33:02;44.28;;;24.10;;
21326;SDS011;10822;51.532;6.770;2023-02-21T04:35:29;44.30;;;24.20;;
21326;SDS011;10822;51.532;6.770;2023-02-21T04:37:55;47.13;;;24.63;;
21326;SDS011;10822;51.532;6.770;2023-02-21T04:40:20;46.85;;;24.05;;
21326;SDS011;10822;51.532;6.770;2023-02-21T04:42:46;48.97;;;26.80;;
21326;SDS011;10822;51.532;6.770;2023-02-21T04:45:12;48.00;;;25.27;;
21326;SDS011;10822;51.532;6.770;2023-02-21T04:47:38;49.10;;;25.13;;
21326;SDS011;10822;51.532;6.770;2023-02-21T04:50:05;47.03;;;24.85;;
21326;SDS011;10822;51.532;6.770;2023-02-21T04:52:31;49.72;;;25.05;;
21326;SDS011;10822;51.532;6.770;2023-02-21T04:54:57;50.08;;;25.30;;
21326;SDS011;10822;51.532;6.770;2023-02-21T04:57:23;47.17;;;24.30;;
21326;SDS011;10822;51.532;6.770;2023-02-21T04:59:54;45.13;;;24.15;;
21326;SDS011;10822;51.532;6.770;2023-02-21T05:02:20;49.00;;;25.45;;
21326;SDS011;10822;51.532;6.770;2023-02-21T05:04:46;51.58;;;26.92;;
21326;SDS011;10822;51.532;6.770;2023-02-21T05:07:12;48.92;;;24.45;;
21326;SDS011;10822;51.532;6.770;2023-02-21T05:09:38;52.88;;;27.65;;
21326;SDS011;10822;51.532;6.770;2023-02-21T05:12:04;51.10;;;26.77;;
21326;SDS011;10822;51.532;6.770;2023-02-21T05:14:35;52.47;;;27.30;;
21326;SDS011;10822;51.532;6.770;2023-02-21T05:17:02;51.90;;;26.50;;
21326;SDS011;10822;51.532;6.770;2023-02-21T05:19:28;51.85;;;26.50;;
21326;SDS011;10822;51.532;6.770;2023-02-21T05:21:57;53.05;;;27.25;;
21326;SDS011;10822;51.532;6.770;2023-02-21T05:24:24;54.00;;;27.33;;
21326;SDS011;10822;51.532;6.770;2023-02-21T05:26:51;53.22;;;26.92;;
21326;SDS011;10822;51.532;6.770;2023-02-21T05:29:17;53.80;;;26.15;;
21326;SDS011;10822;51.532;6.770;2023-02-21T05:31:43;59.67;;;28.05;;
21326;SDS011;10822;51.532;6.770;2023-02-21T05:34:10;57.85;;;28.98;;
21326;SDS011;10822;51.532;6.770;2023-02-21T05:36:35;53.08;;;27.13;;
21326;SDS011;10822;51.532;6.770;2023-02-21T05:39:02;57.63;;;27.90;;
21326;SDS011;10822;51.532;6.770;2023-02-21T05:41:28;59.55;;;27.42;;
21326;SDS011;10822;51.532;6.770;2023-02-21T05:43:54;59.95;;;28.33;;
21326;SDS011;10822;51.532;6.770;2023-02-21T05:46:22;56.65;;;28.02;;
21326;SDS011;10822;51.532;6.770;2023-02-21T05:48:48;52.63;;;27.35;;
21326;SDS011;10822;51.532;6.770;2023-02-21T05:51:14;59.25;;;29.25;;
21326;SDS011;10822;51.532;6.770;2023-02-21T05:53:40;55.63;;;26.30;;
21326;SDS011;10822;51.532;6.770;2023-02-21T05:56:06;65.93;;;31.42;;
21326;SDS011;10822;51.532;6.770;2023-02-21T05:58:32;54.85;;;28.73;;
21326;SDS011;10822;51.532;6.770;2023-02-21T06:00:58;60.05;;;28.20;;
21326;SDS011;10822;51.532;6.770;2023-02-21T06:03:24;58.42;;;27.45;;
21326;SDS011;10822;51.532;6.770;2023-02-21T06:05:50;56.05;;;27.55;;
21326;SDS011;10822;51.532;6.770;2023-02-21T06:08:16;54.22;;;26.95;;
21326;SDS011;10822;51.532;6.770;2023-02-21T06:10:42;54.65;;;25.58;;
21326;SDS011;10822;51.532;6.770;2023-02-21T06:13:08;52.28;;;25.80;;
21326;SDS011;10822;51.532;6.770;2023-02-21T06:15:34;54.38;;;27.42;;
21326;SDS011;10822;51.532;6.770;2023-02-21T06:18:00;57.83;;;27.67;;
21326;SDS011;10822;51.532;6.770;2023-02-21T06:20:26;62.83;;;27.80;;
21326;SDS011;10822;51.532;6.770;2023-02-21T06:22:52;58.33;;;28.05;;
21326;SDS011;10822;51.532;6.770;2023-02-21T06:25:18;57.00;;;26.40;;
21326;SDS011;10822;51.532;6.770;2023-02-21T06:27:44;57.67;;;27.40;;
21326;SDS011;10822;51.532;6.770;2023-02-21T06:30:10;60.15;;;28.33;;
21326;SDS011;10822;51.532;6.770;2023-02-21T06:32:36;59.25;;;27.20;;
21326;SDS011;10822;51.532;6.770;2023-02-21T06:35:03;67.32;;;28.92;;
21326;SDS011;10822;51.532;6.770;2023-02-21T06:37:29;60.25;;;29.67;;
21326;SDS011;10822;51.532;6.770;2023-02-21T06:39:55;66.35;;;30.00;;
21326;SDS011;10822;51.532;6.770;2023-02-21T06:42:21;57.28;;;25.83;;
21326;SDS011;10822;51.532;6.770;2023-02-21T06:44:47;64.65;;;29.10;;
21326;SDS011;10822;51.532;6.770;2023-02-21T06:47:13;63.60;;;28.00;;
21326;SDS011;10822;51.532;6.770;2023-02-21T06:49:40;63.15;;;27.80;;
21326;SDS011;10822;51.532;6.770;2023-02-21T06:52:06;62.85;;;27.05;;
21326;SDS011;10822;51.532;6.770;2023-02-21T06:54:32;65.95;;;27.63;;
21326;SDS011;10822;51.532;6.770;2023-02-21T06:56:58;62.08;;;27.50;;
21326;SDS011;10822;51.532;6.770;2023-02-21T06:59:25;63.67;;;25.63;;
21326;SDS011;10822;51.532;6.770;2023-02-21T07:01:52;60.88;;;25.80;;
21326;SDS011;10822;51.532;6.770;2023-02-21T07:04:17;63.53;;;26.83;;
21326;SDS011;10822;51.532;6.770;2023-02-21T07:06:43;62.03;;;26.48;;
21326;SDS011;10822;51.532;6.770;2023-02-21T07:09:09;59.50;;;26.13;;
21326;SDS011;10822;51.532;6.770;2023-02-21T07:11:35;62.40;;;26.85;;
21326;SDS011;10822;51.532;6.770;2023-02-21T07:14:01;63.40;;;26.75;;
21326;SDS011;10822;51.532;6.770;2023-02-21T07:16:27;60.97;;;26.52;;
21326;SDS011;10822;51.532;6.770;2023-02-21T07:18:54;64.93;;;26.92;;
21326;SDS011;10822;51.532;6.770;2023-02-21T07:21:20;60.65;;;26.08;;
21326;SDS011;10822;51.532;6.770;2023-02-21T07:23:46;55.90;;;24.08;;
21326;SDS011;10822;51.532;6.770;2023-02-21T07:26:12;62.97;;;24.77;;
21326;SDS011;10822;51.532;6.770;2023-02-21T07:28:39;65.32;;;26.60;;
21326;SDS011;10822;51.532;6.770;2023-02-21T07:31:05;68.47;;;27.65;;
21326;SDS011;10822;51.532;6.770;2023-02-21T07:33:31;62.22;;;25.10;;
21326;SDS011;10822;51.532;6.770;2023-02-21T07:35:58;57.85;;;24.55;;
21326;SDS011;10822;51.532;6.770;2023-02-21T07:38:28;59.90;;;24.17;;
21326;SDS011;10822;51.532;6.770;2023-02-21T07:40:54;61.28;;;24.20;;
21326;SDS011;10822;51.532;6.770;2023-02-21T07:43:21;56.55;;;23.60;;
21326;SDS011;10822;51.532;6.770;2023-02-21T07:45:47;56.85;;;22.95;;
21326;SDS011;10822;51.532;6.770;2023-02-21T07:48:13;61.47;;;25.13;;
21326;SDS011;10822;51.532;6.770;2023-02-21T07:50:39;57.83;;;22.70;;
21326;SDS011;10822;51.532;6.770;2023-02-21T07:53:06;60.55;;;24.23;;
21326;SDS011;10822;51.532;6.770;2023-02-21T07:55:32;59.00;;;23.67;;
21326;SDS011;10822;51.532;6.770;2023-02-21T07:57:58;62.25;;;25.10;;
21326;SDS011;10822;51.532;6.770;2023-02-21T08:00:24;62.42;;;24.92;;
21326;SDS011;10822;51.532;6.770;2023-02-21T08:02:50;49.25;;;21.25;;
21326;SDS011;10822;51.532;6.770;2023-02-21T08:05:17;60.15;;;24.33;;
21326;SDS011;10822;51.532;6.770;2023-02-21T08:07:43;55.88;;;22.27;;
21326;SDS011;10822;51.532;6.770;2023-02-21T08:10:09;53.97;;;21.95;;
21326;SDS011;10822;51.532;6.770;2023-02-21T08:12:36;54.90;;;23.55;;
21326;SDS011;10822;51.532;6.770;2023-02-21T08:15:02;49.40;;;21.45;;
21326;SDS011;10822;51.532;6.770;2023-02-21T08:17:29;53.78;;;21.63;;
21326;SDS011;10822;51.532;6.770;2023-02-21T08:19:55;49.20;;;20.48;;
21326;SDS011;10822;51.532;6.770;2023-02-21T08:22:21;56.55;;;22.25;;
21326;SDS011;10822;51.532;6.770;2023-02-21T08:24:50;52.95;;;21.60;;
21326;SDS011;10822;51.532;6.770;2023-02-21T08:27:16;47.03;;;21.27;;
21326;SDS011;10822;51.532;6.770;2023-02-21T08:29:42;48.15;;;20.98;;
21326;SDS011;10822;51.532;6.770;2023-02-21T08:32:09;51.03;;;20.92;;
21326;SDS011;10822;51.532;6.770;2023-02-21T08:34:35;48.47;;;19.85;;
21326;SDS011;10822;51.532;6.770;2023-02-21T08:37:01;49.97;;;20.35;;
21326;SDS011;10822;51.532;6.770;2023-02-21T08:39:30;46.97;;;20.23;;
21326;SDS011;10822;51.532;6.770;2023-02-21T08:41:56;43.47;;;18.60;;
21326;SDS011;10822;51.532;6.770;2023-02-21T08:44:22;48.88;;;20.75;;
21326;SDS011;10822;51.532;6.770;2023-02-21T08:46:48;46.65;;;20.25;;
21326;SDS011;10822;51.532;6.770;2023-02-21T08:49:14;45.67;;;21.25;;
21326;SDS011;10822;51.532;6.770;2023-02-21T08:51:40;49.10;;;21.38;;
21326;SDS011;10822;51.532;6.770;2023-02-21T08:54:06;48.97;;;21.08;;
21326;SDS011;10822;51.532;6.770;2023-02-21T08:56:32;43.70;;;19.27;;
21326;SDS011;10822;51.532;6.770;2023-02-21T08:59:00;42.13;;;19.20;;
21326;SDS011;10822;51.532;6.770;2023-02-21T09:01:32;42.75;;;18.83;;
21326;SDS011;10822;51.532;6.770;2023-02-21T09:03:58;42.70;;;19.25;;
21326;SDS011;10822;51.532;6.770;2023-02-21T09:06:24;43.72;;;19.17;;
21326;SDS011;10822;51.532;6.770;2023-02-21T09:08:50;42.83;;;18.50;;
21326;SDS011;10822;51.532;6.770;2023-02-21T09:11:16;36.90;;;17.65;;
21326;SDS011;10822;51.532;6.770;2023-02-21T09:13:42;40.58;;;17.98;;
21326;SDS011;10822;51.532;6.770;2023-02-21T09:16:08;37.90;;;18.17;;
21326;SDS011;10822;51.532;6.770;2023-02-21T09:18:34;32.45;;;15.73;;
21326;SDS011;10822;51.532;6.770;2023-02-21T09:21:00;35.90;;;16.17;;
21326;SDS011;10822;51.532;6.770;2023-02-21T09:23:27;37.50;;;16.15;;
21326;SDS011;10822;51.532;6.770;2023-02-21T09:25:53;39.58;;;17.08;;
21326;SDS011;10822;51.532;6.770;2023-02-21T09:28:20;36.50;;;15.98;;
21326;SDS011;10822;51.532;6.770;2023-02-21T09:30:46;36.33;;;16.40;;
21326;SDS011;10822;51.532;6.770;2023-02-21T09:33:13;33.45;;;14.82;;
21326;SDS011;10822;51.532;6.770;2023-02-21T09:35:39;34.92;;;16.33;;
21326;SDS011;10822;51.532;6.770;2023-02-21T09:38:05;30.65;;;14.63;;
21326;SDS011;10822;51.532;6.770;2023-02-21T09:40:36;27.42;;;13.98;;
21326;SDS011;10822;51.532;6.770;2023-02-21T09:43:05;30.80;;;14.45;;
21326;SDS011;10822;51.532;6.770;2023-02-21T09:45:33;28.13;;;13.70;;
21326;SDS011;10822;51.532;6.770;2023-02-21T09:48:03;29.98;;;14.07;;
21326;SDS011;10822;51.532;6.770;2023-02-21T09:50:33;29.75;;;14.18;;
21326;SDS011;10822;51.532;6.770;2023-02-21T09:52:59;29.25;;;14.43;;
21326;SDS011;10822;51.532;6.770;2023-02-21T09:57:52;29.38;;;14.50;;
21326;SDS011;10822;51.532;6.770;2023-02-21T10:00:18;25.60;;;13.52;;
21326;SDS011;10822;51.532;6.770;2023-02-21T10:07:44;26.45;;;13.70;;
21326;SDS011;10822;51.532;6.770;2023-02-21T10:10:29;27.63;;;14.10;;
21326;SDS011;10822;51.532;6.770;2023-02-21T10:18:37;25.77;;;13.23;;
21326;SDS011;10822;51.532;6.770;2023-02-21T10:21:10;25.55;;;12.65;;
21326;SDS011;10822;51.532;6.770;2023-02-21T10:26:04;22.67;;;12.02;;
21326;SDS011;10822;51.532;6.770;2023-02-21T10:28:33;25.38;;;12.75;;
21326;SDS011;10822;51.532;6.770;2023-02-21T10:31:00;24.17;;;12.63;;
21326;SDS011;10822;51.532;6.770;2023-02-21T10:33:27;22.88;;;12.23;;
21326;SDS011;10822;51.532;6.770;2023-02-21T10:35:53;23.58;;;12.82;;
21326;SDS011;10822;51.532;6.770;2023-02-21T10:38:22;21.73;;;11.18;;
21326;SDS011;10822;51.532;6.770;2023-02-21T10:40:50;21.70;;;11.68;;
21326;SDS011;10822;51.532;6.770;2023-02-21T10:43:18;20.65;;;12.13;;
21326;SDS011;10822;51.532;6.770;2023-02-21T10:48:35;17.35;;;10.63;;
21326;SDS011;10822;51.532;6.770;2023-02-21T10:53:46;21.05;;;11.82;;
21326;SDS011;10822;51.532;6.770;2023-02-21T10:58:55;20.80;;;11.45;;
21326;SDS011;10822;51.532;6.770;2023-02-21T11:03:54;20.58;;;11.95;;
21326;SDS011;10822;51.532;6.770;2023-02-21T11:06:31;22.73;;;13.35;;
21326;SDS011;10822;51.532;6.770;2023-02-21T11:08:58;21.20;;;12.10;;
21326;SDS011;10822;51.532;6.770;2023-02-21T11:11:37;20.98;;;12.27;;
21326;SDS011;10822;51.532;6.770;2023-02-21T11:16:41;18.23;;;11.23;;
21326;SDS011;10822;51.532;6.770;2023-02-21T11:19:11;19.73;;;11.15;;
21326;SDS011;10822;51.532;6.770;2023-02-21T11:21:37;20.75;;;11.77;;
21326;SDS011;10822;51.532;6.770;2023-02-21T11:24:04;22.67;;;12.52;;
21326;SDS011;10822;51.532;6.770;2023-02-21T11:26:44;19.67;;;12.38;;
21326;SDS011;10822;51.532;6.770;2023-02-21T11:29:12;19.60;;;11.98;;
21326;SDS011;10822;51.532;6.770;2023-02-21T11:31:39;17.80;;;11.23;;
21326;SDS011;10822;51.532;6.770;2023-02-21T11:34:06;19.45;;;12.25;;
21326;SDS011;10822;51.532;6.770;2023-02-21T11:36:34;20.70;;;11.80;;
21326;SDS011;10822;51.532;6.770;2023-02-21T11:41:48;18.08;;;10.20;;
21326;SDS011;10822;51.532;6.770;2023-02-21T11:44:25;19.10;;;11.20;;
21326;SDS011;10822;51.532;6.770;2023-02-21T11:47:00;17.33;;;10.07;;
21326;SDS011;10822;51.532;6.770;2023-02-21T11:52:11;19.98;;;11.13;;
21326;SDS011;10822;51.532;6.770;2023-02-21T11:54:38;18.20;;;10.88;;
21326;SDS011;10822;51.532;6.770;2023-02-21T11:57:09;17.63;;;10.40;;
21326;SDS011;10822;51.532;6.770;2023-02-21T12:04:51;15.45;;;8.80;;
21326;SDS011;10822;51.532;6.770;2023-02-21T12:07:33;14.05;;;9.10;;
21326;SDS011;10822;51.532;6.770;2023-02-21T12:15:29;14.55;;;8.88;;
21326;SDS011;10822;51.532;6.770;2023-02-21T12:20:40;17.77;;;9.82;;
21326;SDS011;10822;51.532;6.770;2023-02-21T12:31:00;14.82;;;8.85;;
21326;SDS011;10822;51.532;6.770;2023-02-21T12:33:43;14.27;;;8.77;;
21326;SDS011;10822;51.532;6.770;2023-02-21T12:44:12;14.50;;;8.45;;
21326;SDS011;10822;51.532;6.770;2023-02-21T12:46:55;13.63;;;7.97;;
21326;SDS011;10822;51.532;6.770;2023-02-21T12:51:51;12.40;;;7.60;;
21326;SDS011;10822;51.532;6.770;2023-02-21T12:54:20;14.57;;;8.00;;
21326;SDS011;10822;51.532;6.770;2023-02-21T12:59:59;11.13;;;7.13;;
21326;SDS011;10822;51.532;6.770;2023-02-21T13:02:00;12.65;;;7.03;;
21326;SDS011;10822;51.532;6.770;2023-02-21T13:07:16;11.90;;;7.20;;
21326;SDS011;10822;51.532;6.770;2023-02-21T13:09:51;9.30;;;6.47;;
21326;SDS011;10822;51.532;6.770;2023-02-21T13:17:38;11.25;;;6.82;;
21326;SDS011;10822;51.532;6.770;2023-02-21T13:20:06;9.18;;;6.00;;
21326;SDS011;10822;51.532;6.770;2023-02-21T13:25:50;15.77;;;9.80;;
21326;SDS011;10822;51.532;6.770;2023-02-21T13:28:19;15.13;;;8.77;;
21326;SDS011;10822;51.532;6.770;2023-02-21T13:30:49;13.13;;;7.75;;
21326;SDS011;10822;51.532;6.770;2023-02-21T13:33:58;11.38;;;6.97;;
21326;SDS011;10822;51.532;6.770;2023-02-21T13:36:53;10.23;;;6.80;;
21326;SDS011;10822;51.532;6.770;2023-02-21T13:41:24;25.50;;;15.90;;
21326;SDS011;10822;51.532;6.770;2023-02-21T13:43:52;17.58;;;10.85;;
21326;SDS011;10822;51.532;6.770;2023-02-21T13:49:35;13.63;;;8.73;;
21326;SDS011;10822;51.532;6.770;2023-02-21T13:51:46;10.27;;;6.45;;
21326;SDS011;10822;51.532;6.770;2023-02-21T13:54:13;11.98;;;7.80;;
21326;SDS011;10822;51.532;6.770;2023-02-21T13:56:46;10.85;;;6.97;;
21326;SDS011;10822;51.532;6.770;2023-02-21T14:01:49;11.70;;;6.97;;
21326;SDS011;10822;51.532;6.770;2023-02-21T14:07:00;10.65;;;6.75;;
21326;SDS011;10822;51.532;6.770;2023-02-21T14:09:26;12.05;;;7.05;;
21326;SDS011;10822;51.532;6.770;2023-02-21T14:11:52;12.90;;;8.07;;
21326;SDS011;10822;51.532;6.770;2023-02-21T14:14:27;11.65;;;7.88;;
21326;SDS011;10822;51.532;6.770;2023-02-21T14:24:22;11.50;;;7.60;;
21326;SDS011;10822;51.532;6.770;2023-02-21T14:31:54;9.85;;;7.10;;
21326;SDS011;10822;51.532;6.770;2023-02-21T14:34:24;11.95;;;7.57;;
21326;SDS011;10822;51.532;6.770;2023-02-21T14:36:51;11.48;;;7.18;;
21326;SDS011;10822;51.532;6.770;2023-02-21T14:39:19;11.10;;;7.60;;
21326;SDS011;10822;51.532;6.770;2023-02-21T14:44:18;11.98;;;7.70;;
21326;SDS011;10822;51.532;6.770;2023-02-21T14:51:46;9.25;;;6.18;;
21326;SDS011;10822;51.532;6.770;2023-02-21T14:54:41;9.20;;;6.05;;
21326;SDS011;10822;51.532;6.770;2023-02-21T15:02:33;12.85;;;6.18;;
21326;SDS011;10822;51.532;6.770;2023-02-21T15:10:44;10.77;;;7.20;;
21326;SDS011;10822;51.532;6.770;2023-02-21T15:12:52;8.73;;;5.93;;
21326;SDS011;10822;51.532;6.770;2023-02-21T15:15:32;11.02;;;6.18;;
21326;SDS011;10822;51.532;6.770;2023-02-21T15:18:00;8.65;;;5.93;;
21326;SDS011;10822;51.532;6.770;2023-02-21T15:20:27;11.45;;;7.40;;
21326;SDS011;10822;51.532;6.770;2023-02-21T15:22:55;11.48;;;6.90;;
21326;SDS011;10822;51.532;6.770;2023-02-21T15:25:21;10.98;;;7.40;;
21326;SDS011;10822;51.532;6.770;2023-02-21T15:32:42;13.05;;;8.27;;
21326;SDS011;10822;51.532;6.770;2023-02-21T15:35:14;14.82;;;9.50;;
21326;SDS011;10822;51.532;6.770;2023-02-21T15:37:42;14.75;;;8.88;;
21326;SDS011;10822;51.532;6.770;2023-02-21T15:40:16;11.93;;;7.45;;
21326;SDS011;10822;51.532;6.770;2023-02-21T15:42:44;13.23;;;8.02;;
21326;SDS011;10822;51.532;6.770;2023-02-21T15:45:15;12.25;;;7.93;;
21326;SDS011;10822;51.532;6.770;2023-02-21T15:47:43;14.90;;;9.82;;
21326;SDS011;10822;51.532;6.770;2023-02-21T15:50:12;13.57;;;8.43;;
21326;SDS011;10822;51.532;6.770;2023-02-21T15:52:44;13.40;;;8.80;;
21326;SDS011;10822;51.532;6.770;2023-02-21T16:00:25;14.85;;;9.07;;
21326;SDS011;10822;51.532;6.770;2023-02-21T16:02:52;13.82;;;9.15;;
21326;SDS011;10822;51.532;6.770;2023-02-21T16:05:22;18.45;;;11.38;;
21326;SDS011;10822;51.532;6.770;2023-02-21T16:07:48;15.77;;;10.35;;
21326;SDS011;10822;51.532;6.770;2023-02-21T16:10:18;14.38;;;9.10;;
21326;SDS011;10822;51.532;6.770;2023-02-21T16:12:46;14.55;;;8.73;;
21326;SDS011;10822;51.532;6.770;2023-02-21T16:15:25;14.48;;;8.25;;
21326;SDS011;10822;51.532;6.770;2023-02-21T16:17:52;13.18;;;7.97;;
21326;SDS011;10822;51.532;6.770;2023-02-21T16:20:20;13.13;;;8.10;;
21326;SDS011;10822;51.532;6.770;2023-02-21T16:22:49;11.93;;;7.55;;
21326;SDS011;10822;51.532;6.770;2023-02-21T16:27:45;12.82;;;7.60;;
21326;SDS011;10822;51.532;6.770;2023-02-21T16:30:30;13.98;;;7.72;;
21326;SDS011;10822;51.532;6.770;2023-02-21T16:33:00;12.15;;;7.03;;
21326;SDS011;10822;51.532;6.770;2023-02-21T16:35:27;11.90;;;6.90;;
21326;SDS011;10822;51.532;6.770;2023-02-21T16:37:54;13.68;;;7.75;;
21326;SDS011;10822;51.532;6.770;2023-02-21T16:40:22;12.15;;;7.57;;
21326;SDS011;10822;51.532;6.770;2023-02-21T16:42:49;12.65;;;7.35;;
21326;SDS011;10822;51.532;6.770;2023-02-21T16:45:16;13.05;;;7.93;;
21326;SDS011;10822;51.532;6.770;2023-02-21T16:47:42;11.13;;;6.85;;
21326;SDS011;10822;51.532;6.770;2023-02-21T16:50:17;10.15;;;6.45;;
21326;SDS011;10822;51.532;6.770;2023-02-21T16:52:43;13.60;;;7.43;;
21326;SDS011;10822;51.532;6.770;2023-02-21T16:55:12;10.13;;;6.82;;
21326;SDS011;10822;51.532;6.770;2023-02-21T16:57:38;11.50;;;7.32;;
21326;SDS011;10822;51.532;6.770;2023-02-21T17:00:04;11.23;;;7.20;;
21326;SDS011;10822;51.532;6.770;2023-02-21T17:02:31;10.75;;;6.65;;
21326;SDS011;10822;51.532;6.770;2023-02-21T17:04:57;12.68;;;7.30;;
21326;SDS011;10822;51.532;6.770;2023-02-21T17:07:23;13.88;;;7.50;;
21326;SDS011;10822;51.532;6.770;2023-02-21T17:09:49;13.73;;;7.68;;
21326;SDS011;10822;51.532;6.770;2023-02-21T17:12:15;14.27;;;8.30;;
21326;SDS011;10822;51.532;6.770;2023-02-21T17:14:41;10.63;;;7.13;;
21326;SDS011;10822;51.532;6.770;2023-02-21T17:17:08;12.90;;;8.20;;
21326;SDS011;10822;51.532;6.770;2023-02-21T17:19:34;12.80;;;8.55;;
21326;SDS011;10822;51.532;6.770;2023-02-21T17:22:00;12.95;;;7.95;;
21326;SDS011;10822;51.532;6.770;2023-02-21T17:24:26;13.77;;;8.80;;
21326;SDS011;10822;51.532;6.770;2023-02-21T17:26:52;13.48;;;8.00;;